Aeroporto :
LOGIN :

Iscrizione | Disclaimer

   EN    FR    IT 

 










Sommario :    VFR   VFR Marginale   IFR   IFR Intensivo   IFR Molto Intensivo
Visibilità : 
Base nubi : 
>= 8 km
>= 3000ft
5 / 8 km
1000 / 3000 ft
1500m / 5 km
500 / 1000 ft
800 / 1500m
200 / 500 ft
< 800m
< 200 ft
Simboli :   Temporali  Nebbia  Neve Forte  Precipitazioni Forti  Vento > 20 kt
SIGMETs :   Varie  Temporali  Ghiacco  Turbolenza  Onda orograficha  Ceneri Vulcaniche






- Altitudine del aeroporto : 160 ft
- Codice IATA : LRT


LFRH - Lorient Lann Bihoue

ULTIMO METAR :
  • 280400Z AUTO 22004KT 9999 BKN030/// BKN058/// BKN070/// ///CB 14/12 Q1021 TEMPO 4500 SHRA

METARs OBSOLETI :
  • 280330Z AUTO 19007KT 130V230 9000 RA BKN027/// BKN042/// BKN054/// ///TCU 14/13 Q1021 TEMPO 4500 SHRA
  • 280300Z AUTO 22003KT 200V260 9999 FEW049/// BKN062/// BKN078/// ///TCU 12/11 Q1021 TEMPO 4500 SHRA
  • 280230Z AUTO VRB02KT CAVOK 11/10 Q1021 TEMPO 4500 SHRA SCT015TCU
  • 280200Z AUTO 00000KT CAVOK 11/10 Q1022 TEMPO 4500 SHRA SCT015TCU
  • 280130Z AUTO VRB02KT 9999 FEW030 BKN160 11/11 Q1022 TEMPO 4500 SHRA SCT015TCU

TAF TAF LFRH
Valido dal 28 a 00 ore il 29 a 00 ore UTC


272300Z 2800/2824 25007KT 9999 BKN030 BKN050
TEMPO 2802/2812 4500 SHRA SCT015TCU
TEMPO 2813/2818 22015G25KT 3000 SHRA SCT015CB BKN060
PROB30
TEMPO 2819/2821 30015G35KT 2500 TSRA BKN008 SCT012CB OVC030
BECMG 2821/2823 29010KT
TEMPO 2822/2824 4500 SHRA SCT008 SCT015TCU



MetMap, La meteo Aeronautica in un colpo d'occhio ! - Copyright ORBIFLY Dicembre 2007 - Disclaimer

ORBIFLY MET'MAP TEAM :

Programmazione e sviluppo : Alexandra Zaïnal
Concezione : Baudouin d'Aumeries
Aiuto per la programmazione : Marc-Olivier Méhu
Supporto tecnico e logistico : Manuel Goepfert
Aiuto per la traduzione : Arnaldo La Scala

Contatto : metmap@orbifly.com




FONTI E CREDITI :

   NOAA